sensor_id;sensor_type;location;lat;lon;timestamp;temperature;humidity
20364;DHT22;10340;53.664;9.908;2022-11-28T00:02:26;5.70;99.90
20364;DHT22;10340;53.664;9.908;2022-11-28T00:04:53;5.70;99.90
20364;DHT22;10340;53.664;9.908;2022-11-28T00:07:20;5.70;99.90
20364;DHT22;10340;53.664;9.908;2022-11-28T00:09:47;5.70;99.90
20364;DHT22;10340;53.664;9.908;2022-11-28T00:12:14;5.60;99.90
20364;DHT22;10340;53.664;9.908;2022-11-28T00:14:41;5.60;99.90
20364;DHT22;10340;53.664;9.908;2022-11-28T00:17:08;5.60;99.90
20364;DHT22;10340;53.664;9.908;2022-11-28T00:19:37;5.60;99.90
20364;DHT22;10340;53.664;9.908;2022-11-28T00:22:04;5.70;99.90
20364;DHT22;10340;53.664;9.908;2022-11-28T00:24:31;5.60;99.90
20364;DHT22;10340;53.664;9.908;2022-11-28T00:26:58;5.70;99.90
20364;DHT22;10340;53.664;9.908;2022-11-28T00:29:25;5.70;99.90
20364;DHT22;10340;53.664;9.908;2022-11-28T00:31:52;5.70;99.90
20364;DHT22;10340;53.664;9.908;2022-11-28T00:34:19;5.70;99.90
20364;DHT22;10340;53.664;9.908;2022-11-28T00:36:48;5.70;99.90
20364;DHT22;10340;53.664;9.908;2022-11-28T00:39:16;5.70;99.90
20364;DHT22;10340;53.664;9.908;2022-11-28T00:41:44;5.80;99.90
20364;DHT22;10340;53.664;9.908;2022-11-28T00:44:12;5.70;99.90
20364;DHT22;10340;53.664;9.908;2022-11-28T00:46:39;5.70;99.90
20364;DHT22;10340;53.664;9.908;2022-11-28T00:49:07;5.80;99.90
20364;DHT22;10340;53.664;9.908;2022-11-28T00:51:34;5.80;99.90
20364;DHT22;10340;53.664;9.908;2022-11-28T00:54:03;5.80;99.90
20364;DHT22;10340;53.664;9.908;2022-11-28T00:56:32;5.80;99.90
20364;DHT22;10340;53.664;9.908;2022-11-28T00:59:00;5.80;99.90
20364;DHT22;10340;53.664;9.908;2022-11-28T01:01:29;5.80;99.90
20364;DHT22;10340;53.664;9.908;2022-11-28T01:03:58;5.80;99.90
20364;DHT22;10340;53.664;9.908;2022-11-28T01:06:28;5.80;99.90
20364;DHT22;10340;53.664;9.908;2022-11-28T01:08:57;5.70;99.90
20364;DHT22;10340;53.664;9.908;2022-11-28T01:11:27;5.80;99.90
20364;DHT22;10340;53.664;9.908;2022-11-28T01:13:55;5.80;99.90
20364;DHT22;10340;53.664;9.908;2022-11-28T01:16:23;5.80;99.90
20364;DHT22;10340;53.664;9.908;2022-11-28T01:18:51;5.80;99.90
20364;DHT22;10340;53.664;9.908;2022-11-28T01:21:19;5.80;99.90
20364;DHT22;10340;53.664;9.908;2022-11-28T01:23:46;5.80;99.90
20364;DHT22;10340;53.664;9.908;2022-11-28T01:26:16;5.70;99.90
20364;DHT22;10340;53.664;9.908;2022-11-28T01:28:46;5.70;99.90
20364;DHT22;10340;53.664;9.908;2022-11-28T01:31:15;5.70;99.90
20364;DHT22;10340;53.664;9.908;2022-11-28T01:33:42;5.70;99.90
20364;DHT22;10340;53.664;9.908;2022-11-28T01:36:10;5.70;99.90
20364;DHT22;10340;53.664;9.908;2022-11-28T01:38:38;5.70;99.90
20364;DHT22;10340;53.664;9.908;2022-11-28T01:41:06;5.70;99.90
20364;DHT22;10340;53.664;9.908;2022-11-28T01:43:34;5.60;99.90
20364;DHT22;10340;53.664;9.908;2022-11-28T01:46:04;5.60;99.90
20364;DHT22;10340;53.664;9.908;2022-11-28T01:48:34;5.70;99.90
20364;DHT22;10340;53.664;9.908;2022-11-28T01:51:06;5.70;99.90
20364;DHT22;10340;53.664;9.908;2022-11-28T01:53:38;5.60;99.90
20364;DHT22;10340;53.664;9.908;2022-11-28T01:56:11;5.60;99.90
20364;DHT22;10340;53.664;9.908;2022-11-28T01:58:41;5.70;99.90
20364;DHT22;10340;53.664;9.908;2022-11-28T02:01:13;5.60;99.90
20364;DHT22;10340;53.664;9.908;2022-11-28T02:03:43;5.60;99.90
20364;DHT22;10340;53.664;9.908;2022-11-28T02:06:13;5.60;99.90
20364;DHT22;10340;53.664;9.908;2022-11-28T02:08:41;5.60;99.90
20364;DHT22;10340;53.664;9.908;2022-11-28T02:11:29;5.60;99.90
20364;DHT22;10340;53.664;9.908;2022-11-28T02:14:04;5.60;99.90
20364;DHT22;10340;53.664;9.908;2022-11-28T02:16:47;5.50;99.90
20364;DHT22;10340;53.664;9.908;2022-11-28T02:19:49;5.50;99.90
20364;DHT22;10340;53.664;9.908;2022-11-28T02:22:24;5.50;99.90
20364;DHT22;10340;53.664;9.908;2022-11-28T02:28:22;5.50;99.90
20364;DHT22;10340;53.664;9.908;2022-11-28T02:31:01;5.40;99.90
20364;DHT22;10340;53.664;9.908;2022-11-28T02:33:35;5.40;99.90
20364;DHT22;10340;53.664;9.908;2022-11-28T02:36:10;5.40;99.90
20364;DHT22;10340;53.664;9.908;2022-11-28T02:38:51;5.40;99.90
20364;DHT22;10340;53.664;9.908;2022-11-28T02:41:24;5.40;99.90
20364;DHT22;10340;53.664;9.908;2022-11-28T02:43:56;5.40;99.90
20364;DHT22;10340;53.664;9.908;2022-11-28T02:46:29;5.40;99.90
20364;DHT22;10340;53.664;9.908;2022-11-28T02:49:03;5.40;99.90
20364;DHT22;10340;53.664;9.908;2022-11-28T02:51:34;5.40;99.90
20364;DHT22;10340;53.664;9.908;2022-11-28T02:54:06;5.40;99.90
20364;DHT22;10340;53.664;9.908;2022-11-28T02:56:34;5.40;99.90
20364;DHT22;10340;53.664;9.908;2022-11-28T02:59:01;5.40;99.90
20364;DHT22;10340;53.664;9.908;2022-11-28T03:01:32;5.40;99.90
20364;DHT22;10340;53.664;9.908;2022-11-28T03:04:18;5.40;99.90
20364;DHT22;10340;53.664;9.908;2022-11-28T03:06:59;5.40;99.90
20364;DHT22;10340;53.664;9.908;2022-11-28T03:09:42;5.40;99.90
20364;DHT22;10340;53.664;9.908;2022-11-28T03:12:21;5.50;99.90
20364;DHT22;10340;53.664;9.908;2022-11-28T03:14:53;5.50;99.90
20364;DHT22;10340;53.664;9.908;2022-11-28T03:17:29;5.50;99.90
20364;DHT22;10340;53.664;9.908;2022-11-28T03:20:14;5.50;99.90
20364;DHT22;10340;53.664;9.908;2022-11-28T03:22:52;5.50;99.90
20364;DHT22;10340;53.664;9.908;2022-11-28T03:25:27;5.50;99.90
20364;DHT22;10340;53.664;9.908;2022-11-28T03:28:02;5.50;99.90
20364;DHT22;10340;53.664;9.908;2022-11-28T03:30:36;5.50;99.90
20364;DHT22;10340;53.664;9.908;2022-11-28T03:33:05;5.50;99.90
20364;DHT22;10340;53.664;9.908;2022-11-28T03:35:39;5.50;99.90
20364;DHT22;10340;53.664;9.908;2022-11-28T03:38:12;5.50;99.90
20364;DHT22;10340;53.664;9.908;2022-11-28T03:40:44;5.50;99.90
20364;DHT22;10340;53.664;9.908;2022-11-28T03:43:15;5.50;99.90
20364;DHT22;10340;53.664;9.908;2022-11-28T03:45:47;5.50;99.90
20364;DHT22;10340;53.664;9.908;2022-11-28T03:48:19;5.50;99.90
20364;DHT22;10340;53.664;9.908;2022-11-28T03:50:55;5.60;99.90
20364;DHT22;10340;53.664;9.908;2022-11-28T03:53:28;5.50;99.90
20364;DHT22;10340;53.664;9.908;2022-11-28T03:55:59;5.60;99.90
20364;DHT22;10340;53.664;9.908;2022-11-28T03:58:32;5.60;99.90
20364;DHT22;10340;53.664;9.908;2022-11-28T04:01:08;5.60;99.90
20364;DHT22;10340;53.664;9.908;2022-11-28T04:03:42;5.60;99.90
20364;DHT22;10340;53.664;9.908;2022-11-28T04:06:18;5.60;99.90
20364;DHT22;10340;53.664;9.908;2022-11-28T04:08:51;5.60;99.90
20364;DHT22;10340;53.664;9.908;2022-11-28T04:11:21;5.60;99.90
20364;DHT22;10340;53.664;9.908;2022-11-28T04:13:53;5.60;99.90
20364;DHT22;10340;53.664;9.908;2022-11-28T04:16:25;5.60;99.90
20364;DHT22;10340;53.664;9.908;2022-11-28T04:19:00;5.60;99.90
20364;DHT22;10340;53.664;9.908;2022-11-28T04:21:34;5.60;99.90
20364;DHT22;10340;53.664;9.908;2022-11-28T04:24:07;5.50;99.90
20364;DHT22;10340;53.664;9.908;2022-11-28T04:26:36;5.50;99.90
20364;DHT22;10340;53.664;9.908;2022-11-28T04:29:07;5.50;99.90
20364;DHT22;10340;53.664;9.908;2022-11-28T04:31:36;5.50;99.90
20364;DHT22;10340;53.664;9.908;2022-11-28T04:34:06;5.50;99.90
20364;DHT22;10340;53.664;9.908;2022-11-28T04:36:37;5.50;99.90
20364;DHT22;10340;53.664;9.908;2022-11-28T04:39:08;5.60;99.90
20364;DHT22;10340;53.664;9.908;2022-11-28T04:41:40;5.50;99.90
20364;DHT22;10340;53.664;9.908;2022-11-28T04:44:12;5.60;99.90
20364;DHT22;10340;53.664;9.908;2022-11-28T04:46:43;5.60;99.90
20364;DHT22;10340;53.664;9.908;2022-11-28T04:49:12;5.60;99.90
20364;DHT22;10340;53.664;9.908;2022-11-28T04:51:45;5.60;99.90
20364;DHT22;10340;53.664;9.908;2022-11-28T04:54:17;5.60;99.90
20364;DHT22;10340;53.664;9.908;2022-11-28T04:56:49;5.50;99.90
20364;DHT22;10340;53.664;9.908;2022-11-28T04:59:17;5.60;99.90
20364;DHT22;10340;53.664;9.908;2022-11-28T05:01:46;5.60;99.90
20364;DHT22;10340;53.664;9.908;2022-11-28T05:04:14;5.50;99.90
20364;DHT22;10340;53.664;9.908;2022-11-28T05:06:43;5.60;99.90
20364;DHT22;10340;53.664;9.908;2022-11-28T05:09:11;5.60;99.90
20364;DHT22;10340;53.664;9.908;2022-11-28T05:11:38;5.60;99.90
20364;DHT22;10340;53.664;9.908;2022-11-28T05:14:06;5.70;99.90
20364;DHT22;10340;53.664;9.908;2022-11-28T05:16:33;5.70;99.90
20364;DHT22;10340;53.664;9.908;2022-11-28T05:19:00;5.70;99.90
20364;DHT22;10340;53.664;9.908;2022-11-28T05:21:27;5.60;99.90
20364;DHT22;10340;53.664;9.908;2022-11-28T05:23:55;5.70;99.90
20364;DHT22;10340;53.664;9.908;2022-11-28T05:26:22;5.70;99.90
20364;DHT22;10340;53.664;9.908;2022-11-28T05:28:50;5.70;99.90
20364;DHT22;10340;53.664;9.908;2022-11-28T05:31:19;5.70;99.90
20364;DHT22;10340;53.664;9.908;2022-11-28T05:33:46;5.70;99.90
20364;DHT22;10340;53.664;9.908;2022-11-28T05:36:14;5.60;99.90
20364;DHT22;10340;53.664;9.908;2022-11-28T05:38:42;5.60;99.90
20364;DHT22;10340;53.664;9.908;2022-11-28T05:41:17;5.60;99.90
20364;DHT22;10340;53.664;9.908;2022-11-28T05:43:45;5.60;99.90
20364;DHT22;10340;53.664;9.908;2022-11-28T05:46:12;5.50;99.90
20364;DHT22;10340;53.664;9.908;2022-11-28T05:48:40;5.50;99.90
20364;DHT22;10340;53.664;9.908;2022-11-28T05:51:07;5.50;99.90
20364;DHT22;10340;53.664;9.908;2022-11-28T05:53:34;5.50;99.90
20364;DHT22;10340;53.664;9.908;2022-11-28T05:56:05;5.50;99.90
20364;DHT22;10340;53.664;9.908;2022-11-28T05:58:34;5.40;99.90
20364;DHT22;10340;53.664;9.908;2022-11-28T06:01:08;5.40;99.90
20364;DHT22;10340;53.664;9.908;2022-11-28T06:03:36;5.40;99.90
20364;DHT22;10340;53.664;9.908;2022-11-28T06:06:03;5.40;99.90
20364;DHT22;10340;53.664;9.908;2022-11-28T06:08:33;5.40;99.90
20364;DHT22;10340;53.664;9.908;2022-11-28T06:11:00;5.30;99.90
20364;DHT22;10340;53.664;9.908;2022-11-28T06:13:27;5.40;99.90
20364;DHT22;10340;53.664;9.908;2022-11-28T06:15:56;5.30;99.90
20364;DHT22;10340;53.664;9.908;2022-11-28T06:18:23;5.40;99.90
20364;DHT22;10340;53.664;9.908;2022-11-28T06:20:50;5.40;99.90
20364;DHT22;10340;53.664;9.908;2022-11-28T06:23:17;5.40;99.90
20364;DHT22;10340;53.664;9.908;2022-11-28T06:25:44;5.40;99.90
20364;DHT22;10340;53.664;9.908;2022-11-28T06:28:11;5.40;99.90
20364;DHT22;10340;53.664;9.908;2022-11-28T06:30:38;5.30;99.90
20364;DHT22;10340;53.664;9.908;2022-11-28T06:33:06;5.40;99.90
20364;DHT22;10340;53.664;9.908;2022-11-28T06:35:34;5.40;99.90
20364;DHT22;10340;53.664;9.908;2022-11-28T06:38:01;5.40;99.90
20364;DHT22;10340;53.664;9.908;2022-11-28T06:40:28;5.40;99.90
20364;DHT22;10340;53.664;9.908;2022-11-28T06:42:55;5.40;99.90
20364;DHT22;10340;53.664;9.908;2022-11-28T06:45:22;5.40;99.90
20364;DHT22;10340;53.664;9.908;2022-11-28T06:47:49;5.40;99.90
20364;DHT22;10340;53.664;9.908;2022-11-28T06:50:17;5.40;99.90
20364;DHT22;10340;53.664;9.908;2022-11-28T06:52:44;5.50;99.90
20364;DHT22;10340;53.664;9.908;2022-11-28T06:55:12;5.50;99.90
20364;DHT22;10340;53.664;9.908;2022-11-28T06:57:39;5.50;99.90
20364;DHT22;10340;53.664;9.908;2022-11-28T07:00:08;5.40;99.90
20364;DHT22;10340;53.664;9.908;2022-11-28T07:02:36;5.40;99.90
20364;DHT22;10340;53.664;9.908;2022-11-28T07:05:04;5.40;99.90
20364;DHT22;10340;53.664;9.908;2022-11-28T07:07:32;5.40;99.90
20364;DHT22;10340;53.664;9.908;2022-11-28T07:09:59;5.40;99.90
20364;DHT22;10340;53.664;9.908;2022-11-28T07:12:26;5.40;99.90
20364;DHT22;10340;53.664;9.908;2022-11-28T07:14:53;5.40;99.90
20364;DHT22;10340;53.664;9.908;2022-11-28T07:17:20;5.40;99.90
20364;DHT22;10340;53.664;9.908;2022-11-28T07:19:48;5.40;99.90
20364;DHT22;10340;53.664;9.908;2022-11-28T07:22:15;5.40;99.90
20364;DHT22;10340;53.664;9.908;2022-11-28T07:24:43;5.40;99.90
20364;DHT22;10340;53.664;9.908;2022-11-28T07:27:10;5.40;99.90
20364;DHT22;10340;53.664;9.908;2022-11-28T07:29:38;5.40;99.90
20364;DHT22;10340;53.664;9.908;2022-11-28T07:32:05;5.40;99.90
20364;DHT22;10340;53.664;9.908;2022-11-28T07:34:33;5.50;99.90
20364;DHT22;10340;53.664;9.908;2022-11-28T07:37:00;5.50;99.90
20364;DHT22;10340;53.664;9.908;2022-11-28T07:39:28;5.50;99.90
20364;DHT22;10340;53.664;9.908;2022-11-28T07:41:57;5.40;99.90
20364;DHT22;10340;53.664;9.908;2022-11-28T07:44:24;5.50;99.90
20364;DHT22;10340;53.664;9.908;2022-11-28T07:46:51;5.50;99.90
20364;DHT22;10340;53.664;9.908;2022-11-28T07:49:18;5.50;99.90
20364;DHT22;10340;53.664;9.908;2022-11-28T07:51:45;5.50;99.90
20364;DHT22;10340;53.664;9.908;2022-11-28T07:54:12;5.50;99.90
20364;DHT22;10340;53.664;9.908;2022-11-28T07:56:39;5.60;99.90
20364;DHT22;10340;53.664;9.908;2022-11-28T07:59:08;5.60;99.90
20364;DHT22;10340;53.664;9.908;2022-11-28T08:01:35;5.60;99.90
20364;DHT22;10340;53.664;9.908;2022-11-28T08:04:05;5.60;99.90
20364;DHT22;10340;53.664;9.908;2022-11-28T08:06:35;5.60;99.90
20364;DHT22;10340;53.664;9.908;2022-11-28T08:09:03;5.60;99.90
20364;DHT22;10340;53.664;9.908;2022-11-28T08:11:32;5.60;99.90
20364;DHT22;10340;53.664;9.908;2022-11-28T08:13:59;5.60;99.90
20364;DHT22;10340;53.664;9.908;2022-11-28T08:16:28;5.60;99.90
20364;DHT22;10340;53.664;9.908;2022-11-28T08:18:56;5.60;99.90
20364;DHT22;10340;53.664;9.908;2022-11-28T08:21:25;5.60;99.90
20364;DHT22;10340;53.664;9.908;2022-11-28T08:23:54;5.60;99.90
20364;DHT22;10340;53.664;9.908;2022-11-28T08:26:23;5.60;99.90
20364;DHT22;10340;53.664;9.908;2022-11-28T08:28:51;5.50;99.90
20364;DHT22;10340;53.664;9.908;2022-11-28T08:31:20;5.60;99.90
20364;DHT22;10340;53.664;9.908;2022-11-28T08:33:50;5.60;99.90
20364;DHT22;10340;53.664;9.908;2022-11-28T08:36:18;5.60;99.90
20364;DHT22;10340;53.664;9.908;2022-11-28T08:38:46;5.60;99.90
20364;DHT22;10340;53.664;9.908;2022-11-28T08:41:15;5.60;99.90
20364;DHT22;10340;53.664;9.908;2022-11-28T08:43:43;5.60;99.90
20364;DHT22;10340;53.664;9.908;2022-11-28T08:46:13;5.60;99.90
20364;DHT22;10340;53.664;9.908;2022-11-28T08:48:41;5.70;99.90
20364;DHT22;10340;53.664;9.908;2022-11-28T08:51:11;5.70;99.90
20364;DHT22;10340;53.664;9.908;2022-11-28T08:53:39;5.80;99.90
20364;DHT22;10340;53.664;9.908;2022-11-28T08:56:07;5.80;99.90
20364;DHT22;10340;53.664;9.908;2022-11-28T08:58:34;5.80;99.90
20364;DHT22;10340;53.664;9.908;2022-11-28T09:01:02;5.80;99.90
20364;DHT22;10340;53.664;9.908;2022-11-28T09:03:30;5.80;99.90
20364;DHT22;10340;53.664;9.908;2022-11-28T09:06:00;5.80;99.90
20364;DHT22;10340;53.664;9.908;2022-11-28T09:08:29;5.80;99.90
20364;DHT22;10340;53.664;9.908;2022-11-28T09:10:56;5.80;99.90
20364;DHT22;10340;53.664;9.908;2022-11-28T09:13:23;5.80;99.90
20364;DHT22;10340;53.664;9.908;2022-11-28T09:15:50;5.80;99.90
20364;DHT22;10340;53.664;9.908;2022-11-28T09:18:17;5.80;99.90
20364;DHT22;10340;53.664;9.908;2022-11-28T09:20:44;5.80;99.90
20364;DHT22;10340;53.664;9.908;2022-11-28T09:23:11;5.80;99.90
20364;DHT22;10340;53.664;9.908;2022-11-28T09:25:40;5.80;99.90
20364;DHT22;10340;53.664;9.908;2022-11-28T09:28:07;5.80;99.90
20364;DHT22;10340;53.664;9.908;2022-11-28T09:30:34;5.80;99.90
20364;DHT22;10340;53.664;9.908;2022-11-28T09:33:01;5.80;99.90
20364;DHT22;10340;53.664;9.908;2022-11-28T09:35:29;5.70;99.90
20364;DHT22;10340;53.664;9.908;2022-11-28T09:37:56;5.90;99.90
20364;DHT22;10340;53.664;9.908;2022-11-28T09:40:30;5.80;99.90
20364;DHT22;10340;53.664;9.908;2022-11-28T09:43:02;5.80;99.90
20364;DHT22;10340;53.664;9.908;2022-11-28T09:45:30;5.80;99.90
20364;DHT22;10340;53.664;9.908;2022-11-28T09:48:02;5.80;99.90
20364;DHT22;10340;53.664;9.908;2022-11-28T09:50:34;5.70;99.90
20364;DHT22;10340;53.664;9.908;2022-11-28T09:53:14;5.70;99.90
20364;DHT22;10340;53.664;9.908;2022-11-28T09:55:46;5.70;99.90
20364;DHT22;10340;53.664;9.908;2022-11-28T09:58:22;5.70;99.90
20364;DHT22;10340;53.664;9.908;2022-11-28T10:00:55;5.60;99.90
20364;DHT22;10340;53.664;9.908;2022-11-28T10:03:34;5.60;99.90
20364;DHT22;10340;53.664;9.908;2022-11-28T10:06:17;5.60;99.90
20364;DHT22;10340;53.664;9.908;2022-11-28T10:09:04;5.60;99.90
20364;DHT22;10340;53.664;9.908;2022-11-28T10:11:44;5.50;99.90
20364;DHT22;10340;53.664;9.908;2022-11-28T10:14:46;5.50;99.90
20364;DHT22;10340;53.664;9.908;2022-11-28T10:17:23;5.50;99.90
20364;DHT22;10340;53.664;9.908;2022-11-28T10:19:53;5.50;99.90
20364;DHT22;10340;53.664;9.908;2022-11-28T10:22:26;5.50;99.90
20364;DHT22;10340;53.664;9.908;2022-11-28T10:24:57;5.50;99.90
20364;DHT22;10340;53.664;9.908;2022-11-28T10:27:32;5.50;99.90
20364;DHT22;10340;53.664;9.908;2022-11-28T10:30:04;5.60;99.90
20364;DHT22;10340;53.664;9.908;2022-11-28T10:32:37;5.60;99.90
20364;DHT22;10340;53.664;9.908;2022-11-28T10:35:09;5.50;99.90
20364;DHT22;10340;53.664;9.908;2022-11-28T10:37:41;5.60;99.90
20364;DHT22;10340;53.664;9.908;2022-11-28T10:40:16;5.60;99.90
20364;DHT22;10340;53.664;9.908;2022-11-28T10:42:47;5.60;99.90
20364;DHT22;10340;53.664;9.908;2022-11-28T10:45:25;5.60;99.90
20364;DHT22;10340;53.664;9.908;2022-11-28T10:48:10;5.50;99.90
20364;DHT22;10340;53.664;9.908;2022-11-28T10:50:49;5.60;99.90
20364;DHT22;10340;53.664;9.908;2022-11-28T10:53:29;5.60;99.90
20364;DHT22;10340;53.664;9.908;2022-11-28T10:56:07;5.60;99.90
20364;DHT22;10340;53.664;9.908;2022-11-28T10:58:41;5.60;99.90
20364;DHT22;10340;53.664;9.908;2022-11-28T11:01:12;5.60;99.90
20364;DHT22;10340;53.664;9.908;2022-11-28T11:03:40;5.60;99.90
20364;DHT22;10340;53.664;9.908;2022-11-28T11:06:08;5.60;99.90
20364;DHT22;10340;53.664;9.908;2022-11-28T11:08:36;5.60;99.90
20364;DHT22;10340;53.664;9.908;2022-11-28T11:11:05;5.60;99.90
20364;DHT22;10340;53.664;9.908;2022-11-28T11:13:58;5.60;99.90
20364;DHT22;10340;53.664;9.908;2022-11-28T11:16:46;5.60;99.90
20364;DHT22;10340;53.664;9.908;2022-11-28T11:19:32;5.60;99.90
20364;DHT22;10340;53.664;9.908;2022-11-28T11:22:02;5.60;99.90
20364;DHT22;10340;53.664;9.908;2022-11-28T11:24:30;5.60;99.90
20364;DHT22;10340;53.664;9.908;2022-11-28T11:27:06;5.60;99.90
20364;DHT22;10340;53.664;9.908;2022-11-28T11:29:34;5.60;99.90
20364;DHT22;10340;53.664;9.908;2022-11-28T11:32:05;5.60;99.90
20364;DHT22;10340;53.664;9.908;2022-11-28T11:34:43;5.60;99.90
20364;DHT22;10340;53.664;9.908;2022-11-28T11:37:31;5.60;99.90
20364;DHT22;10340;53.664;9.908;2022-11-28T11:39:59;5.60;99.90
20364;DHT22;10340;53.664;9.908;2022-11-28T11:42:28;5.60;99.90
20364;DHT22;10340;53.664;9.908;2022-11-28T11:44:56;5.60;99.90
20364;DHT22;10340;53.664;9.908;2022-11-28T11:47:41;5.60;99.90
20364;DHT22;10340;53.664;9.908;2022-11-28T11:50:16;5.50;99.90
20364;DHT22;10340;53.664;9.908;2022-11-28T11:52:43;5.50;99.90
20364;DHT22;10340;53.664;9.908;2022-11-28T11:55:26;5.50;99.90
20364;DHT22;10340;53.664;9.908;2022-11-28T11:57:54;5.40;99.90
20364;DHT22;10340;53.664;9.908;2022-11-28T12:00:26;5.40;99.90
20364;DHT22;10340;53.664;9.908;2022-11-28T12:02:58;5.30;99.90
20364;DHT22;10340;53.664;9.908;2022-11-28T12:05:27;5.30;99.90
20364;DHT22;10340;53.664;9.908;2022-11-28T12:08:00;5.30;99.90
20364;DHT22;10340;53.664;9.908;2022-11-28T12:10:30;5.30;99.90
20364;DHT22;10340;53.664;9.908;2022-11-28T12:12:58;5.30;99.90
20364;DHT22;10340;53.664;9.908;2022-11-28T12:15:35;5.30;99.90
20364;DHT22;10340;53.664;9.908;2022-11-28T12:18:17;5.30;99.90
20364;DHT22;10340;53.664;9.908;2022-11-28T12:20:57;5.30;99.90
20364;DHT22;10340;53.664;9.908;2022-11-28T12:23:47;5.30;99.90
20364;DHT22;10340;53.664;9.908;2022-11-28T12:26:24;5.30;99.90
20364;DHT22;10340;53.664;9.908;2022-11-28T12:29:03;5.30;99.90
20364;DHT22;10340;53.664;9.908;2022-11-28T12:31:41;5.30;99.90
20364;DHT22;10340;53.664;9.908;2022-11-28T12:34:20;5.30;99.90
20364;DHT22;10340;53.664;9.908;2022-11-28T12:36:57;5.30;99.90
20364;DHT22;10340;53.664;9.908;2022-11-28T12:39:35;5.30;99.90
20364;DHT22;10340;53.664;9.908;2022-11-28T12:42:12;5.40;99.90
20364;DHT22;10340;53.664;9.908;2022-11-28T12:45:11;5.30;99.90
20364;DHT22;10340;53.664;9.908;2022-11-28T12:47:50;5.30;99.90
20364;DHT22;10340;53.664;9.908;2022-11-28T12:50:28;5.30;99.90
20364;DHT22;10340;53.664;9.908;2022-11-28T12:53:04;5.30;99.90
20364;DHT22;10340;53.664;9.908;2022-11-28T12:55:40;5.30;99.90
20364;DHT22;10340;53.664;9.908;2022-11-28T12:58:16;5.30;99.90
20364;DHT22;10340;53.664;9.908;2022-11-28T13:00:49;5.30;99.90
20364;DHT22;10340;53.664;9.908;2022-11-28T13:03:32;5.30;99.90
20364;DHT22;10340;53.664;9.908;2022-11-28T13:06:18;5.30;99.90
20364;DHT22;10340;53.664;9.908;2022-11-28T13:09:08;5.30;99.90
20364;DHT22;10340;53.664;9.908;2022-11-28T13:11:48;5.30;99.90
20364;DHT22;10340;53.664;9.908;2022-11-28T13:14:26;5.30;99.90
20364;DHT22;10340;53.664;9.908;2022-11-28T13:17:06;5.20;99.90
20364;DHT22;10340;53.664;9.908;2022-11-28T13:19:42;5.20;99.90
20364;DHT22;10340;53.664;9.908;2022-11-28T13:22:16;5.30;99.90
20364;DHT22;10340;53.664;9.908;2022-11-28T13:24:55;5.30;99.90
20364;DHT22;10340;53.664;9.908;2022-11-28T13:27:34;5.30;99.90
20364;DHT22;10340;53.664;9.908;2022-11-28T13:30:12;5.30;99.90
20364;DHT22;10340;53.664;9.908;2022-11-28T13:32:44;5.30;99.90
20364;DHT22;10340;53.664;9.908;2022-11-28T13:35:13;5.30;99.90
20364;DHT22;10340;53.664;9.908;2022-11-28T13:37:46;5.20;99.90
20364;DHT22;10340;53.664;9.908;2022-11-28T13:40:21;5.20;99.90
20364;DHT22;10340;53.664;9.908;2022-11-28T13:42:53;5.10;99.90
20364;DHT22;10340;53.664;9.908;2022-11-28T13:45:24;5.20;99.90
20364;DHT22;10340;53.664;9.908;2022-11-28T13:47:52;5.20;99.90
20364;DHT22;10340;53.664;9.908;2022-11-28T13:50:39;5.10;99.90
20364;DHT22;10340;53.664;9.908;2022-11-28T13:53:21;5.10;99.90
20364;DHT22;10340;53.664;9.908;2022-11-28T13:55:49;5.10;99.90
20364;DHT22;10340;53.664;9.908;2022-11-28T13:58:21;5.10;99.90
20364;DHT22;10340;53.664;9.908;2022-11-28T14:01:12;5.10;99.90
20364;DHT22;10340;53.664;9.908;2022-11-28T14:03:45;5.00;99.90
20364;DHT22;10340;53.664;9.908;2022-11-28T14:06:17;5.10;99.90
20364;DHT22;10340;53.664;9.908;2022-11-28T14:08:47;5.10;99.90
20364;DHT22;10340;53.664;9.908;2022-11-28T14:11:42;5.00;99.90
20364;DHT22;10340;53.664;9.908;2022-11-28T14:14:36;5.00;99.90
20364;DHT22;10340;53.664;9.908;2022-11-28T14:17:23;5.00;99.90
20364;DHT22;10340;53.664;9.908;2022-11-28T14:20:02;5.00;99.90
20364;DHT22;10340;53.664;9.908;2022-11-28T14:22:43;5.00;99.90
20364;DHT22;10340;53.664;9.908;2022-11-28T14:25:18;5.00;99.90
20364;DHT22;10340;53.664;9.908;2022-11-28T14:27:50;5.00;99.90
20364;DHT22;10340;53.664;9.908;2022-11-28T14:30:29;4.90;99.90
20364;DHT22;10340;53.664;9.908;2022-11-28T14:32:58;4.90;99.90
20364;DHT22;10340;53.664;9.908;2022-11-28T14:36:01;4.90;99.90
20364;DHT22;10340;53.664;9.908;2022-11-28T14:38:43;4.80;99.90
20364;DHT22;10340;53.664;9.908;2022-11-28T14:41:12;4.90;99.90
20364;DHT22;10340;53.664;9.908;2022-11-28T14:43:42;4.80;99.90
20364;DHT22;10340;53.664;9.908;2022-11-28T14:46:26;4.80;99.90
20364;DHT22;10340;53.664;9.908;2022-11-28T14:49:20;4.80;99.90
20364;DHT22;10340;53.664;9.908;2022-11-28T14:52:06;4.80;99.90
20364;DHT22;10340;53.664;9.908;2022-11-28T14:54:34;4.70;99.90
20364;DHT22;10340;53.664;9.908;2022-11-28T14:57:11;4.70;99.90
20364;DHT22;10340;53.664;9.908;2022-11-28T14:59:41;4.80;99.90
20364;DHT22;10340;53.664;9.908;2022-11-28T15:02:31;4.80;99.90
20364;DHT22;10340;53.664;9.908;2022-11-28T15:05:10;4.80;99.90
20364;DHT22;10340;53.664;9.908;2022-11-28T15:07:47;4.80;99.90
20364;DHT22;10340;53.664;9.908;2022-11-28T15:10:22;4.80;99.90
20364;DHT22;10340;53.664;9.908;2022-11-28T15:13:03;4.70;99.90
20364;DHT22;10340;53.664;9.908;2022-11-28T15:15:33;4.70;99.90
20364;DHT22;10340;53.664;9.908;2022-11-28T15:18:02;4.70;99.90
20364;DHT22;10340;53.664;9.908;2022-11-28T15:20:35;4.70;99.90
20364;DHT22;10340;53.664;9.908;2022-11-28T15:23:19;4.70;99.90
20364;DHT22;10340;53.664;9.908;2022-11-28T15:25:53;4.70;99.90
20364;DHT22;10340;53.664;9.908;2022-11-28T15:28:23;4.70;99.90
20364;DHT22;10340;53.664;9.908;2022-11-28T15:30:53;4.70;99.90
20364;DHT22;10340;53.664;9.908;2022-11-28T15:33:22;4.70;99.90
20364;DHT22;10340;53.664;9.908;2022-11-28T15:35:58;4.70;99.90
20364;DHT22;10340;53.664;9.908;2022-11-28T15:38:27;4.70;99.90
20364;DHT22;10340;53.664;9.908;2022-11-28T15:40:56;4.70;99.90
20364;DHT22;10340;53.664;9.908;2022-11-28T15:43:25;4.70;99.90
20364;DHT22;10340;53.664;9.908;2022-11-28T15:45:57;4.70;99.90
20364;DHT22;10340;53.664;9.908;2022-11-28T15:48:27;4.70;99.90
20364;DHT22;10340;53.664;9.908;2022-11-28T15:50:58;4.70;99.90
20364;DHT22;10340;53.664;9.908;2022-11-28T15:53:25;4.70;99.90
20364;DHT22;10340;53.664;9.908;2022-11-28T15:56:09;4.70;99.90
20364;DHT22;10340;53.664;9.908;2022-11-28T15:58:39;4.70;99.90
20364;DHT22;10340;53.664;9.908;2022-11-28T16:01:10;4.70;99.90
20364;DHT22;10340;53.664;9.908;2022-11-28T16:03:45;4.70;99.90
20364;DHT22;10340;53.664;9.908;2022-11-28T16:06:13;4.70;99.90
20364;DHT22;10340;53.664;9.908;2022-11-28T16:08:46;4.70;99.90
20364;DHT22;10340;53.664;9.908;2022-11-28T16:11:16;4.70;99.90
20364;DHT22;10340;53.664;9.908;2022-11-28T16:13:46;4.70;99.90
20364;DHT22;10340;53.664;9.908;2022-11-28T16:16:15;4.70;99.90
20364;DHT22;10340;53.664;9.908;2022-11-28T16:18:44;4.70;99.90
20364;DHT22;10340;53.664;9.908;2022-11-28T16:21:12;4.60;99.90